sensor_id;sensor_type;location;lat;lon;timestamp;P1;durP1;ratioP1;P2;durP2;ratioP2
52642;SDS011;38531;53.296;6.614;2022-07-04T00:01:00;2.53;;;0.60;;
52642;SDS011;38531;53.296;6.614;2022-07-04T00:03:26;1.95;;;0.70;;
52642;SDS011;38531;53.296;6.614;2022-07-04T00:05:54;1.10;;;0.50;;
52642;SDS011;38531;53.296;6.614;2022-07-04T00:08:20;1.52;;;0.60;;
52642;SDS011;38531;53.296;6.614;2022-07-04T00:10:46;0.52;;;0.50;;
52642;SDS011;38531;53.296;6.614;2022-07-04T00:13:12;1.10;;;0.50;;
52642;SDS011;38531;53.296;6.614;2022-07-04T00:15:40;0.73;;;0.60;;
52642;SDS011;38531;53.296;6.614;2022-07-04T00:18:06;1.75;;;0.60;;
52642;SDS011;38531;53.296;6.614;2022-07-04T00:20:31;1.67;;;0.70;;
52642;SDS011;38531;53.296;6.614;2022-07-04T00:22:57;0.95;;;0.63;;
52642;SDS011;38531;53.296;6.614;2022-07-04T00:25:23;0.73;;;0.68;;
52642;SDS011;38531;53.296;6.614;2022-07-04T00:27:49;1.60;;;1.00;;
52642;SDS011;38531;53.296;6.614;2022-07-04T00:30:14;2.08;;;0.60;;
52642;SDS011;38531;53.296;6.614;2022-07-04T00:32:40;1.55;;;0.70;;
52642;SDS011;38531;53.296;6.614;2022-07-04T00:35:06;0.57;;;0.45;;
52642;SDS011;38531;53.296;6.614;2022-07-04T00:37:33;2.33;;;1.00;;
52642;SDS011;38531;53.296;6.614;2022-07-04T00:39:59;1.88;;;0.98;;
52642;SDS011;38531;53.296;6.614;2022-07-04T00:42:24;2.10;;;0.60;;
52642;SDS011;38531;53.296;6.614;2022-07-04T00:44:51;2.92;;;0.65;;
52642;SDS011;38531;53.296;6.614;2022-07-04T00:47:17;0.90;;;0.60;;
52642;SDS011;38531;53.296;6.614;2022-07-04T00:49:42;3.60;;;0.80;;
52642;SDS011;38531;53.296;6.614;2022-07-04T00:52:08;1.20;;;0.60;;
52642;SDS011;38531;53.296;6.614;2022-07-04T00:54:34;1.00;;;0.68;;
52642;SDS011;38531;53.296;6.614;2022-07-04T00:57:00;0.90;;;0.68;;
52642;SDS011;38531;53.296;6.614;2022-07-04T00:59:27;1.30;;;0.70;;
52642;SDS011;38531;53.296;6.614;2022-07-04T01:01:53;1.88;;;0.60;;
52642;SDS011;38531;53.296;6.614;2022-07-04T01:04:19;1.02;;;0.50;;
52642;SDS011;38531;53.296;6.614;2022-07-04T01:06:45;0.90;;;0.70;;
52642;SDS011;38531;53.296;6.614;2022-07-04T01:09:11;1.08;;;0.60;;
52642;SDS011;38531;53.296;6.614;2022-07-04T01:11:37;1.48;;;0.80;;
52642;SDS011;38531;53.296;6.614;2022-07-04T01:14:03;0.85;;;0.70;;
52642;SDS011;38531;53.296;6.614;2022-07-04T01:16:31;0.95;;;0.70;;
52642;SDS011;38531;53.296;6.614;2022-07-04T01:19:00;1.23;;;0.52;;
52642;SDS011;38531;53.296;6.614;2022-07-04T01:21:26;1.38;;;0.68;;
52642;SDS011;38531;53.296;6.614;2022-07-04T01:23:52;2.13;;;0.80;;
52642;SDS011;38531;53.296;6.614;2022-07-04T01:26:17;1.73;;;0.88;;
52642;SDS011;38531;53.296;6.614;2022-07-04T01:28:43;2.80;;;0.70;;
52642;SDS011;38531;53.296;6.614;2022-07-04T01:31:10;2.97;;;0.70;;
52642;SDS011;38531;53.296;6.614;2022-07-04T01:33:36;2.50;;;1.70;;
52642;SDS011;38531;53.296;6.614;2022-07-04T01:36:01;1.40;;;0.80;;
52642;SDS011;38531;53.296;6.614;2022-07-04T01:38:27;1.15;;;0.80;;
52642;SDS011;38531;53.296;6.614;2022-07-04T01:40:53;2.88;;;1.08;;
52642;SDS011;38531;53.296;6.614;2022-07-04T01:43:19;1.25;;;0.90;;
52642;SDS011;38531;53.296;6.614;2022-07-04T01:45:45;1.20;;;0.80;;
52642;SDS011;38531;53.296;6.614;2022-07-04T01:48:11;1.00;;;0.70;;
52642;SDS011;38531;53.296;6.614;2022-07-04T01:50:38;0.88;;;0.70;;
52642;SDS011;38531;53.296;6.614;2022-07-04T01:53:04;0.90;;;0.52;;
52642;SDS011;38531;53.296;6.614;2022-07-04T01:55:33;1.48;;;0.80;;
52642;SDS011;38531;53.296;6.614;2022-07-04T01:57:59;2.65;;;0.80;;
52642;SDS011;38531;53.296;6.614;2022-07-04T02:00:26;1.95;;;0.90;;
52642;SDS011;38531;53.296;6.614;2022-07-04T02:03:10;2.78;;;1.45;;
52642;SDS011;38531;53.296;6.614;2022-07-04T02:05:36;1.33;;;0.80;;
52642;SDS011;38531;53.296;6.614;2022-07-04T02:08:03;1.45;;;0.70;;
52642;SDS011;38531;53.296;6.614;2022-07-04T02:10:29;3.55;;;1.65;;
52642;SDS011;38531;53.296;6.614;2022-07-04T02:12:55;2.95;;;1.00;;
52642;SDS011;38531;53.296;6.614;2022-07-04T02:15:29;1.92;;;1.10;;
52642;SDS011;38531;53.296;6.614;2022-07-04T02:17:56;2.55;;;0.70;;
52642;SDS011;38531;53.296;6.614;2022-07-04T02:20:25;0.90;;;0.60;;
52642;SDS011;38531;53.296;6.614;2022-07-04T02:22:51;0.95;;;0.60;;
52642;SDS011;38531;53.296;6.614;2022-07-04T02:25:17;0.88;;;0.75;;
52642;SDS011;38531;53.296;6.614;2022-07-04T02:27:42;0.93;;;0.65;;
52642;SDS011;38531;53.296;6.614;2022-07-04T02:30:08;1.92;;;1.02;;
52642;SDS011;38531;53.296;6.614;2022-07-04T02:32:35;1.33;;;0.93;;
52642;SDS011;38531;53.296;6.614;2022-07-04T02:35:01;1.65;;;0.90;;
52642;SDS011;38531;53.296;6.614;2022-07-04T02:37:27;1.45;;;0.70;;
52642;SDS011;38531;53.296;6.614;2022-07-04T02:39:55;2.42;;;1.00;;
52642;SDS011;38531;53.296;6.614;2022-07-04T02:42:21;1.38;;;0.70;;
52642;SDS011;38531;53.296;6.614;2022-07-04T02:44:47;2.85;;;0.80;;
52642;SDS011;38531;53.296;6.614;2022-07-04T02:47:13;1.02;;;0.75;;
52642;SDS011;38531;53.296;6.614;2022-07-04T02:49:39;0.80;;;0.50;;
52642;SDS011;38531;53.296;6.614;2022-07-04T02:52:05;1.00;;;0.70;;
52642;SDS011;38531;53.296;6.614;2022-07-04T02:54:31;1.17;;;0.70;;
52642;SDS011;38531;53.296;6.614;2022-07-04T02:56:57;1.13;;;0.75;;
52642;SDS011;38531;53.296;6.614;2022-07-04T02:59:23;0.68;;;0.60;;
52642;SDS011;38531;53.296;6.614;2022-07-04T03:01:49;2.65;;;1.10;;
52642;SDS011;38531;53.296;6.614;2022-07-04T03:04:14;2.70;;;0.93;;
52642;SDS011;38531;53.296;6.614;2022-07-04T03:13:16;2.78;;;0.90;;
52642;SDS011;38531;53.296;6.614;2022-07-04T03:15:43;1.15;;;0.60;;
52642;SDS011;38531;53.296;6.614;2022-07-04T03:18:09;0.80;;;0.60;;
52642;SDS011;38531;53.296;6.614;2022-07-04T03:20:34;0.90;;;0.60;;
52642;SDS011;38531;53.296;6.614;2022-07-04T03:23:00;1.05;;;0.73;;
52642;SDS011;38531;53.296;6.614;2022-07-04T03:25:26;1.15;;;0.80;;
52642;SDS011;38531;53.296;6.614;2022-07-04T03:27:52;1.50;;;0.70;;
52642;SDS011;38531;53.296;6.614;2022-07-04T03:30:18;1.75;;;0.90;;
52642;SDS011;38531;53.296;6.614;2022-07-04T03:32:44;1.92;;;0.88;;
52642;SDS011;38531;53.296;6.614;2022-07-04T03:35:09;1.50;;;0.77;;
52642;SDS011;38531;53.296;6.614;2022-07-04T03:37:35;1.25;;;0.60;;
52642;SDS011;38531;53.296;6.614;2022-07-04T03:40:01;2.42;;;1.00;;
52642;SDS011;38531;53.296;6.614;2022-07-04T03:42:27;3.85;;;1.85;;
52642;SDS011;38531;53.296;6.614;2022-07-04T03:44:52;3.38;;;1.35;;
52642;SDS011;38531;53.296;6.614;2022-07-04T03:47:18;2.40;;;1.02;;
52642;SDS011;38531;53.296;6.614;2022-07-04T03:49:44;1.45;;;1.05;;
52642;SDS011;38531;53.296;6.614;2022-07-04T03:52:10;1.83;;;0.90;;
52642;SDS011;38531;53.296;6.614;2022-07-04T03:54:36;2.03;;;1.10;;
52642;SDS011;38531;53.296;6.614;2022-07-04T03:57:01;2.60;;;1.05;;
52642;SDS011;38531;53.296;6.614;2022-07-04T03:59:27;1.08;;;0.80;;
52642;SDS011;38531;53.296;6.614;2022-07-04T04:01:53;4.10;;;1.00;;
52642;SDS011;38531;53.296;6.614;2022-07-04T04:04:19;2.00;;;1.00;;
52642;SDS011;38531;53.296;6.614;2022-07-04T04:07:03;2.42;;;0.77;;
52642;SDS011;38531;53.296;6.614;2022-07-04T04:09:29;2.33;;;0.90;;
52642;SDS011;38531;53.296;6.614;2022-07-04T04:11:56;1.40;;;0.90;;
52642;SDS011;38531;53.296;6.614;2022-07-04T04:14:21;1.35;;;1.02;;
52642;SDS011;38531;53.296;6.614;2022-07-04T04:16:49;4.90;;;1.45;;
52642;SDS011;38531;53.296;6.614;2022-07-04T04:19:35;1.90;;;0.90;;
52642;SDS011;38531;53.296;6.614;2022-07-04T04:26:00;1.20;;;0.80;;
52642;SDS011;38531;53.296;6.614;2022-07-04T04:28:28;1.20;;;0.80;;
52642;SDS011;38531;53.296;6.614;2022-07-04T04:30:56;0.90;;;0.60;;
52642;SDS011;38531;53.296;6.614;2022-07-04T04:33:26;1.73;;;0.65;;
52642;SDS011;38531;53.296;6.614;2022-07-04T04:35:52;2.75;;;1.05;;
52642;SDS011;38531;53.296;6.614;2022-07-04T04:38:20;2.00;;;0.98;;
52642;SDS011;38531;53.296;6.614;2022-07-04T04:40:46;1.13;;;0.80;;
52642;SDS011;38531;53.296;6.614;2022-07-04T04:43:12;3.58;;;1.25;;
52642;SDS011;38531;53.296;6.614;2022-07-04T04:45:38;1.95;;;1.00;;
52642;SDS011;38531;53.296;6.614;2022-07-04T04:48:05;2.38;;;1.00;;
52642;SDS011;38531;53.296;6.614;2022-07-04T04:50:31;1.02;;;0.70;;
52642;SDS011;38531;53.296;6.614;2022-07-04T04:52:56;1.67;;;1.00;;
52642;SDS011;38531;53.296;6.614;2022-07-04T04:55:29;3.35;;;1.15;;
52642;SDS011;38531;53.296;6.614;2022-07-04T04:57:58;2.63;;;1.10;;
52642;SDS011;38531;53.296;6.614;2022-07-04T05:00:24;1.20;;;1.00;;
52642;SDS011;38531;53.296;6.614;2022-07-04T05:02:52;3.10;;;1.45;;
52642;SDS011;38531;53.296;6.614;2022-07-04T05:05:18;2.88;;;1.10;;
52642;SDS011;38531;53.296;6.614;2022-07-04T05:11:25;1.67;;;0.95;;
52642;SDS011;38531;53.296;6.614;2022-07-04T05:13:54;2.25;;;0.93;;
52642;SDS011;38531;53.296;6.614;2022-07-04T05:16:20;1.20;;;0.70;;
52642;SDS011;38531;53.296;6.614;2022-07-04T05:18:48;1.80;;;0.70;;
52642;SDS011;38531;53.296;6.614;2022-07-04T05:21:14;1.98;;;1.08;;
52642;SDS011;38531;53.296;6.614;2022-07-04T05:23:47;3.97;;;0.80;;
52642;SDS011;38531;53.296;6.614;2022-07-04T05:26:23;1.40;;;0.75;;
52642;SDS011;38531;53.296;6.614;2022-07-04T05:39:10;4.10;;;0.90;;
52642;SDS011;38531;53.296;6.614;2022-07-04T05:41:46;2.67;;;0.70;;
52642;SDS011;38531;53.296;6.614;2022-07-04T07:51:32;2.80;;;0.45;;
52642;SDS011;38531;53.296;6.614;2022-07-04T08:57:47;0.57;;;0.20;;
52642;SDS011;38531;53.296;6.614;2022-07-04T09:48:57;2.92;;;0.28;;
52642;SDS011;38531;53.296;6.614;2022-07-04T09:51:36;1.27;;;0.20;;
52642;SDS011;38531;53.296;6.614;2022-07-04T09:54:50;1.10;;;0.40;;
52642;SDS011;38531;53.296;6.614;2022-07-04T09:57:21;0.75;;;0.20;;
52642;SDS011;38531;53.296;6.614;2022-07-04T09:59:53;1.25;;;0.20;;
52642;SDS011;38531;53.296;6.614;2022-07-04T10:02:21;0.95;;;0.20;;
52642;SDS011;38531;53.296;6.614;2022-07-04T10:05:06;1.40;;;0.30;;
52642;SDS011;38531;53.296;6.614;2022-07-04T10:07:39;1.40;;;0.30;;
52642;SDS011;38531;53.296;6.614;2022-07-04T10:13:13;0.30;;;0.20;;
52642;SDS011;38531;53.296;6.614;2022-07-04T10:15:59;0.90;;;0.20;;
52642;SDS011;38531;53.296;6.614;2022-07-04T10:18:31;3.25;;;0.40;;
52642;SDS011;38531;53.296;6.614;2022-07-04T10:21:00;1.27;;;0.20;;
52642;SDS011;38531;53.296;6.614;2022-07-04T10:27:10;0.40;;;0.30;;
52642;SDS011;38531;53.296;6.614;2022-07-04T10:29:40;0.30;;;0.30;;
52642;SDS011;38531;53.296;6.614;2022-07-04T10:32:09;0.80;;;0.25;;
52642;SDS011;38531;53.296;6.614;2022-07-04T10:34:44;1.05;;;0.20;;
52642;SDS011;38531;53.296;6.614;2022-07-04T10:37:12;2.47;;;0.30;;
52642;SDS011;38531;53.296;6.614;2022-07-04T10:39:43;0.70;;;0.40;;
52642;SDS011;38531;53.296;6.614;2022-07-04T10:42:24;0.35;;;0.20;;
52642;SDS011;38531;53.296;6.614;2022-07-04T10:44:51;0.20;;;0.20;;
52642;SDS011;38531;53.296;6.614;2022-07-04T10:47:24;0.65;;;0.20;;
52642;SDS011;38531;53.296;6.614;2022-07-04T10:49:55;0.50;;;0.30;;
52642;SDS011;38531;53.296;6.614;2022-07-04T10:52:21;1.45;;;0.30;;
52642;SDS011;38531;53.296;6.614;2022-07-04T10:54:46;1.13;;;0.20;;
52642;SDS011;38531;53.296;6.614;2022-07-04T10:57:16;1.05;;;0.30;;
52642;SDS011;38531;53.296;6.614;2022-07-04T11:04:48;1.13;;;0.30;;
52642;SDS011;38531;53.296;6.614;2022-07-04T11:07:55;0.30;;;0.20;;
52642;SDS011;38531;53.296;6.614;2022-07-04T11:17:57;1.33;;;0.20;;
52642;SDS011;38531;53.296;6.614;2022-07-04T11:23:19;1.00;;;0.20;;
52642;SDS011;38531;53.296;6.614;2022-07-04T11:25:57;0.65;;;0.30;;
52642;SDS011;38531;53.296;6.614;2022-07-04T12:02:32;1.40;;;0.20;;
52642;SDS011;38531;53.296;6.614;2022-07-04T13:00:25;1.42;;;0.20;;
52642;SDS011;38531;53.296;6.614;2022-07-04T13:15:02;0.30;;;0.15;;
52642;SDS011;38531;53.296;6.614;2022-07-04T13:17:41;0.10;;;0.10;;
52642;SDS011;38531;53.296;6.614;2022-07-04T13:20:07;1.92;;;0.20;;
52642;SDS011;38531;53.296;6.614;2022-07-04T13:22:37;2.20;;;0.10;;
52642;SDS011;38531;53.296;6.614;2022-07-04T13:32:36;1.13;;;0.10;;
52642;SDS011;38531;53.296;6.614;2022-07-04T15:06:50;0.70;;;0.10;;
52642;SDS011;38531;53.296;6.614;2022-07-04T15:36:53;1.70;;;0.10;;
52642;SDS011;38531;53.296;6.614;2022-07-04T15:45:47;0.45;;;0.10;;
52642;SDS011;38531;53.296;6.614;2022-07-04T16:44:42;0.20;;;0.10;;
52642;SDS011;38531;53.296;6.614;2022-07-04T16:47:24;0.43;;;0.10;;
52642;SDS011;38531;53.296;6.614;2022-07-04T16:50:04;0.17;;;0.08;;
52642;SDS011;38531;53.296;6.614;2022-07-04T16:56:25;0.28;;;0.10;;
52642;SDS011;38531;53.296;6.614;2022-07-04T16:59:01;1.95;;;0.10;;
52642;SDS011;38531;53.296;6.614;2022-07-04T17:02:15;0.05;;;0.00;;
52642;SDS011;38531;53.296;6.614;2022-07-04T17:05:03;0.63;;;0.10;;
52642;SDS011;38531;53.296;6.614;2022-07-04T17:07:56;0.52;;;0.10;;
52642;SDS011;38531;53.296;6.614;2022-07-04T17:15:42;1.42;;;0.10;;
52642;SDS011;38531;53.296;6.614;2022-07-04T17:31:51;0.80;;;0.10;;
52642;SDS011;38531;53.296;6.614;2022-07-04T18:45:26;0.60;;;0.22;;
52642;SDS011;38531;53.296;6.614;2022-07-04T18:47:53;0.70;;;0.20;;
52642;SDS011;38531;53.296;6.614;2022-07-04T18:50:25;0.93;;;0.20;;
52642;SDS011;38531;53.296;6.614;2022-07-04T18:53:01;2.50;;;0.40;;
52642;SDS011;38531;53.296;6.614;2022-07-04T18:55:27;1.88;;;0.30;;
52642;SDS011;38531;53.296;6.614;2022-07-04T18:58:23;2.65;;;0.40;;
52642;SDS011;38531;53.296;6.614;2022-07-04T19:01:04;1.02;;;0.30;;
52642;SDS011;38531;53.296;6.614;2022-07-04T19:03:39;0.68;;;0.30;;
52642;SDS011;38531;53.296;6.614;2022-07-04T19:06:13;0.98;;;0.30;;
52642;SDS011;38531;53.296;6.614;2022-07-04T19:15:57;0.43;;;0.35;;
52642;SDS011;38531;53.296;6.614;2022-07-04T19:18:40;1.08;;;0.30;;
52642;SDS011;38531;53.296;6.614;2022-07-04T19:24:24;0.75;;;0.30;;
52642;SDS011;38531;53.296;6.614;2022-07-04T19:31:17;0.38;;;0.30;;
52642;SDS011;38531;53.296;6.614;2022-07-04T19:33:45;3.17;;;0.40;;
52642;SDS011;38531;53.296;6.614;2022-07-04T19:36:19;0.32;;;0.22;;
52642;SDS011;38531;53.296;6.614;2022-07-04T19:38:57;0.68;;;0.40;;
52642;SDS011;38531;53.296;6.614;2022-07-04T19:41:33;0.30;;;0.30;;
52642;SDS011;38531;53.296;6.614;2022-07-04T19:44:08;1.27;;;0.43;;
52642;SDS011;38531;53.296;6.614;2022-07-04T19:46:49;1.95;;;0.40;;
52642;SDS011;38531;53.296;6.614;2022-07-04T19:49:26;0.85;;;0.20;;
52642;SDS011;38531;53.296;6.614;2022-07-04T19:52:06;1.40;;;0.30;;
52642;SDS011;38531;53.296;6.614;2022-07-04T19:54:56;1.55;;;0.40;;
52642;SDS011;38531;53.296;6.614;2022-07-04T19:57:29;0.75;;;0.40;;
52642;SDS011;38531;53.296;6.614;2022-07-04T20:00:03;0.70;;;0.30;;
52642;SDS011;38531;53.296;6.614;2022-07-04T20:02:36;0.50;;;0.30;;
52642;SDS011;38531;53.296;6.614;2022-07-04T20:05:04;1.60;;;0.38;;
52642;SDS011;38531;53.296;6.614;2022-07-04T20:07:41;1.15;;;0.50;;
52642;SDS011;38531;53.296;6.614;2022-07-04T20:10:12;2.17;;;0.38;;
52642;SDS011;38531;53.296;6.614;2022-07-04T20:12:38;2.63;;;0.52;;
52642;SDS011;38531;53.296;6.614;2022-07-04T20:15:04;0.43;;;0.28;;
52642;SDS011;38531;53.296;6.614;2022-07-04T20:17:31;2.45;;;0.30;;
52642;SDS011;38531;53.296;6.614;2022-07-04T20:19:58;1.63;;;0.40;;
52642;SDS011;38531;53.296;6.614;2022-07-04T20:22:24;1.95;;;0.40;;
52642;SDS011;38531;53.296;6.614;2022-07-04T20:24:51;0.30;;;0.30;;
52642;SDS011;38531;53.296;6.614;2022-07-04T20:27:19;0.60;;;0.30;;
52642;SDS011;38531;53.296;6.614;2022-07-04T20:29:46;0.90;;;0.20;;
52642;SDS011;38531;53.296;6.614;2022-07-04T20:32:12;0.35;;;0.30;;
52642;SDS011;38531;53.296;6.614;2022-07-04T20:34:40;1.80;;;0.40;;
52642;SDS011;38531;53.296;6.614;2022-07-04T20:37:07;0.50;;;0.30;;
52642;SDS011;38531;53.296;6.614;2022-07-04T20:39:37;1.55;;;0.40;;
52642;SDS011;38531;53.296;6.614;2022-07-04T20:42:05;1.55;;;0.40;;
52642;SDS011;38531;53.296;6.614;2022-07-04T20:44:31;1.67;;;0.30;;
52642;SDS011;38531;53.296;6.614;2022-07-04T20:46:58;1.95;;;0.40;;
52642;SDS011;38531;53.296;6.614;2022-07-04T20:49:25;1.40;;;0.50;;
52642;SDS011;38531;53.296;6.614;2022-07-04T20:51:50;3.20;;;0.40;;
52642;SDS011;38531;53.296;6.614;2022-07-04T20:54:16;0.98;;;0.30;;
52642;SDS011;38531;53.296;6.614;2022-07-04T20:59:49;0.60;;;0.38;;
52642;SDS011;38531;53.296;6.614;2022-07-04T21:02:15;2.38;;;0.35;;
52642;SDS011;38531;53.296;6.614;2022-07-04T21:04:41;1.60;;;0.50;;
52642;SDS011;38531;53.296;6.614;2022-07-04T21:07:07;0.80;;;0.40;;
52642;SDS011;38531;53.296;6.614;2022-07-04T21:09:33;2.58;;;0.60;;
52642;SDS011;38531;53.296;6.614;2022-07-04T21:12:00;0.57;;;0.47;;
52642;SDS011;38531;53.296;6.614;2022-07-04T21:14:26;0.68;;;0.40;;
52642;SDS011;38531;53.296;6.614;2022-07-04T21:16:53;1.77;;;0.40;;
52642;SDS011;38531;53.296;6.614;2022-07-04T21:19:19;0.85;;;0.40;;
52642;SDS011;38531;53.296;6.614;2022-07-04T21:21:45;1.45;;;0.40;;
52642;SDS011;38531;53.296;6.614;2022-07-04T21:24:11;2.35;;;0.60;;
52642;SDS011;38531;53.296;6.614;2022-07-04T21:26:37;1.50;;;0.80;;
52642;SDS011;38531;53.296;6.614;2022-07-04T21:29:03;0.85;;;0.43;;
52642;SDS011;38531;53.296;6.614;2022-07-04T21:31:30;2.95;;;0.60;;
52642;SDS011;38531;53.296;6.614;2022-07-04T21:33:55;1.05;;;0.45;;
52642;SDS011;38531;53.296;6.614;2022-07-04T21:36:21;1.10;;;0.60;;
52642;SDS011;38531;53.296;6.614;2022-07-04T21:38:48;1.25;;;0.50;;
52642;SDS011;38531;53.296;6.614;2022-07-04T21:41:13;0.98;;;0.40;;
52642;SDS011;38531;53.296;6.614;2022-07-04T21:43:39;1.30;;;0.60;;
52642;SDS011;38531;53.296;6.614;2022-07-04T21:46:05;2.17;;;0.45;;
52642;SDS011;38531;53.296;6.614;2022-07-04T21:48:31;1.45;;;0.60;;
52642;SDS011;38531;53.296;6.614;2022-07-04T21:50:57;0.70;;;0.50;;
52642;SDS011;38531;53.296;6.614;2022-07-04T21:53:23;1.73;;;0.40;;
52642;SDS011;38531;53.296;6.614;2022-07-04T21:55:48;0.88;;;0.60;;
52642;SDS011;38531;53.296;6.614;2022-07-04T21:58:14;1.27;;;0.60;;
52642;SDS011;38531;53.296;6.614;2022-07-04T22:00:40;1.00;;;0.50;;
52642;SDS011;38531;53.296;6.614;2022-07-04T22:03:07;0.60;;;0.40;;
52642;SDS011;38531;53.296;6.614;2022-07-04T22:05:33;0.88;;;0.50;;
52642;SDS011;38531;53.296;6.614;2022-07-04T22:08:00;0.70;;;0.40;;
52642;SDS011;38531;53.296;6.614;2022-07-04T22:10:27;2.55;;;0.45;;
52642;SDS011;38531;53.296;6.614;2022-07-04T22:12:53;0.73;;;0.50;;
52642;SDS011;38531;53.296;6.614;2022-07-04T22:15:21;0.90;;;0.40;;
52642;SDS011;38531;53.296;6.614;2022-07-04T22:17:47;0.82;;;0.50;;
52642;SDS011;38531;53.296;6.614;2022-07-04T22:20:13;1.13;;;0.50;;
52642;SDS011;38531;53.296;6.614;2022-07-04T22:22:39;1.17;;;0.50;;
52642;SDS011;38531;53.296;6.614;2022-07-04T22:25:05;1.55;;;0.60;;
52642;SDS011;38531;53.296;6.614;2022-07-04T22:27:33;0.70;;;0.60;;
52642;SDS011;38531;53.296;6.614;2022-07-04T22:29:59;0.70;;;0.50;;
52642;SDS011;38531;53.296;6.614;2022-07-04T22:32:24;0.82;;;0.50;;
52642;SDS011;38531;53.296;6.614;2022-07-04T22:34:50;1.17;;;0.70;;
52642;SDS011;38531;53.296;6.614;2022-07-04T22:37:16;1.35;;;0.50;;
52642;SDS011;38531;53.296;6.614;2022-07-04T22:39:42;1.05;;;0.50;;
52642;SDS011;38531;53.296;6.614;2022-07-04T22:42:09;1.00;;;0.60;;
52642;SDS011;38531;53.296;6.614;2022-07-04T22:44:35;2.33;;;0.50;;
52642;SDS011;38531;53.296;6.614;2022-07-04T22:47:01;0.80;;;0.50;;
52642;SDS011;38531;53.296;6.614;2022-07-04T22:49:27;1.17;;;0.60;;
52642;SDS011;38531;53.296;6.614;2022-07-04T22:51:53;1.23;;;0.60;;
52642;SDS011;38531;53.296;6.614;2022-07-04T22:54:18;0.85;;;0.57;;
52642;SDS011;38531;53.296;6.614;2022-07-04T22:57:04;0.85;;;0.68;;
52642;SDS011;38531;53.296;6.614;2022-07-04T22:59:30;1.27;;;0.50;;
52642;SDS011;38531;53.296;6.614;2022-07-04T23:01:56;0.90;;;0.60;;
52642;SDS011;38531;53.296;6.614;2022-07-04T23:04:21;0.98;;;0.57;;
52642;SDS011;38531;53.296;6.614;2022-07-04T23:06:47;3.15;;;0.77;;
52642;SDS011;38531;53.296;6.614;2022-07-04T23:09:13;2.15;;;0.40;;
52642;SDS011;38531;53.296;6.614;2022-07-04T23:11:38;1.33;;;0.50;;
52642;SDS011;38531;53.296;6.614;2022-07-04T23:14:05;2.08;;;0.50;;
52642;SDS011;38531;53.296;6.614;2022-07-04T23:16:30;1.15;;;0.50;;
52642;SDS011;38531;53.296;6.614;2022-07-04T23:18:56;1.17;;;0.50;;
52642;SDS011;38531;53.296;6.614;2022-07-04T23:21:22;0.60;;;0.47;;
52642;SDS011;38531;53.296;6.614;2022-07-04T23:23:48;0.55;;;0.40;;
52642;SDS011;38531;53.296;6.614;2022-07-04T23:26:13;2.80;;;0.55;;
52642;SDS011;38531;53.296;6.614;2022-07-04T23:28:39;1.77;;;0.50;;
52642;SDS011;38531;53.296;6.614;2022-07-04T23:31:05;1.13;;;0.60;;
52642;SDS011;38531;53.296;6.614;2022-07-04T23:33:31;1.90;;;0.57;;
52642;SDS011;38531;53.296;6.614;2022-07-04T23:35:56;2.40;;;0.57;;
52642;SDS011;38531;53.296;6.614;2022-07-04T23:38:22;1.27;;;0.60;;
52642;SDS011;38531;53.296;6.614;2022-07-04T23:40:48;1.42;;;0.77;;
52642;SDS011;38531;53.296;6.614;2022-07-04T23:43:13;1.27;;;0.50;;
52642;SDS011;38531;53.296;6.614;2022-07-04T23:45:39;0.50;;;0.47;;
52642;SDS011;38531;53.296;6.614;2022-07-04T23:48:05;1.85;;;0.65;;
52642;SDS011;38531;53.296;6.614;2022-07-04T23:50:31;1.13;;;0.60;;
52642;SDS011;38531;53.296;6.614;2022-07-04T23:52:56;0.70;;;0.45;;
52642;SDS011;38531;53.296;6.614;2022-07-04T23:55:22;1.20;;;0.50;;
52642;SDS011;38531;53.296;6.614;2022-07-04T23:57:48;1.65;;;0.60;;
